Time;durP1;ratioP1;P1;durP2;ratioP2;P2;SDS_P1;SDS_P2;PMS_P1;PMS_P2;Temp;Humidity;BMP_temperature;BMP_pressure;BME280_temperature;BME280_humidity;BME280_pressure;Samples;Min_cycle;Max_cycle;Signal;HPM_P1;HPM_P2
2022/03/30 00:01:45;;;;;;;;;76.33;55.00;;;;;14.25;62.74;100239.59;5049877;28;46009;-63
2022/03/30 00:04:10;;;;;;;;;67.75;49.75;;;;;14.20;62.90;100231.19;5031170;28;45702;-63
2022/03/30 00:06:36;;;;;;;;;55.75;42.25;;;;;14.18;62.79;100236.63;5052777;28;45553;-64
2022/03/30 00:09:01;;;;;;;;;54.00;39.75;;;;;14.15;63.04;100228.09;5049126;28;45377;-63
2022/03/30 00:11:27;;;;;;;;;47.50;38.00;;;;;14.14;63.07;100232.56;5049444;28;45280;-61
2022/03/30 00:13:52;;;;;;;;;43.00;37.00;;;;;14.15;63.09;100228.09;5049823;28;45393;-66
2022/03/30 00:16:18;;;;;;;;;53.75;41.25;;;;;14.14;62.84;100231.69;5052693;28;45367;-62
2022/03/30 00:18:43;;;;;;;;;50.75;41.50;;;;;14.13;62.92;100230.84;5046698;28;45439;-66
2022/03/30 00:21:09;;;;;;;;;55.50;41.00;;;;;14.13;62.93;100228.19;5047126;28;46038;-64
2022/03/30 00:23:35;;;;;;;;;56.75;43.50;;;;;14.11;63.22;100227.50;5049559;28;45479;-63
2022/03/30 00:26:00;;;;;;;;;54.00;42.75;;;;;14.11;62.99;100231.94;5044194;28;45450;-65
2022/03/30 00:28:28;;;;;;;;;49.00;41.25;;;;;14.10;63.15;100225.81;5047409;28;45450;-62
2022/03/30 00:30:55;;;;;;;;;55.00;43.50;;;;;14.07;63.46;100214.63;5050984;28;45313;-61
2022/03/30 00:33:21;;;;;;;;;52.00;42.25;;;;;14.10;63.52;100224.97;5046857;28;45427;-62
2022/03/30 00:35:46;;;;;;;;;60.00;45.00;;;;;14.09;63.55;100224.13;5048961;28;45589;-65
2022/03/30 00:38:13;;;;;;;;;55.25;43.50;;;;;14.07;63.46;100207.53;5050289;28;45535;-63
2022/03/30 00:40:38;;;;;;;;;58.75;46.00;;;;;14.05;63.53;100209.44;5050362;28;45644;-62
2022/03/30 00:43:04;;;;;;;;;52.75;43.00;;;;;14.03;63.63;100211.38;5048744;28;45338;-61
2022/03/30 00:45:30;;;;;;;;;49.50;39.25;;;;;14.01;63.89;100196.59;5048231;28;46741;-61
2022/03/30 00:47:55;;;;;;;;;61.50;44.50;;;;;13.99;63.74;100202.03;5048822;28;45502;-61
2022/03/30 00:50:23;;;;;;;;;59.75;45.50;;;;;14.00;63.95;100202.88;5049667;28;46108;-61
2022/03/30 00:52:51;;;;;;;;;53.50;43.25;;;;;14.02;64.12;100200.94;5051302;28;45589;-63
2022/03/30 00:55:17;;;;;;;;;54.75;45.25;;;;;14.02;64.06;100199.13;5038985;28;45495;-64
2022/03/30 00:57:43;;;;;;;;;63.50;47.00;;;;;14.00;64.18;100198.41;5041509;28;45743;-64
2022/03/30 01:00:12;;;;;;;;;60.50;44.75;;;;;13.99;64.11;100190.59;5057763;28;45467;-64
2022/03/30 01:02:40;;;;;;;;;56.25;45.50;;;;;13.96;64.45;100187.22;5058230;28;45481;-63
2022/03/30 01:05:06;;;;;;;;;64.00;48.25;;;;;13.96;64.34;100187.22;5059781;28;45362;-63
2022/03/30 01:07:32;;;;;;;;;62.00;45.25;;;;;13.94;64.32;100185.66;5056322;28;45549;-63
2022/03/30 01:09:57;;;;;;;;;58.00;45.50;;;;;13.94;64.44;100189.16;5060458;28;45340;-63
2022/03/30 01:12:23;;;;;;;;;63.00;47.50;;;;;13.92;64.38;100185.78;5063189;28;45308;-64
2022/03/30 01:14:49;;;;;;;;;55.50;45.25;;;;;13.94;64.38;100186.50;5065965;28;45495;-63
2022/03/30 01:17:15;;;;;;;;;59.25;46.00;;;;;13.94;64.49;100178.56;5042854;28;45462;-63
2022/03/30 01:19:40;;;;;;;;;62.25;48.00;;;;;13.91;64.52;100170.88;5044974;28;45382;-63
2022/03/30 01:22:07;;;;;;;;;59.50;48.25;;;;;13.93;64.38;100168.94;5042774;28;45640;-63
2022/03/30 01:24:34;;;;;;;;;66.50;48.50;;;;;13.94;64.47;100161.84;5042916;28;45455;-63
2022/03/30 01:27:00;;;;;;;;;60.25;49.25;;;;;13.94;64.58;100151.25;5042594;28;45801;-63
2022/03/30 01:32:26;;;;;;;;;65.25;48.75;;;;;13.87;64.78;100152.72;5051216;28;45469;-63
2022/03/30 01:34:52;;;;;;;;;68.50;47.75;;;;;13.85;64.67;100150.19;5062472;28;45442;-63
2022/03/30 01:37:18;;;;;;;;;64.75;49.00;;;;;13.85;64.93;100144.91;5062504;28;45543;-63
2022/03/30 01:39:44;;;;;;;;;63.00;47.25;;;;;13.82;64.82;100139.84;5057340;28;46322;-63
2022/03/30 01:42:10;;;;;;;;;60.75;48.75;;;;;13.81;64.95;100143.47;5040926;28;45472;-63
2022/03/30 01:44:36;;;;;;;;;63.50;48.00;;;;;13.79;65.21;100132.16;5040628;28;45443;-63
2022/03/30 01:47:02;;;;;;;;;59.00;44.50;;;;;13.78;65.37;100135.78;5040734;28;45783;-63
2022/03/30 01:49:28;;;;;;;;;59.25;47.25;;;;;13.76;65.22;100143.00;5048432;28;45662;-63
2022/03/30 01:51:56;;;;;;;;;61.25;48.75;;;;;13.75;65.35;100130.75;5042282;28;45293;-63
2022/03/30 01:54:24;;;;;;;;;61.00;47.25;;;;;13.75;65.55;100138.69;5046730;28;45608;-63
2022/03/30 01:56:51;;;;;;;;;66.25;47.00;;;;;13.77;65.32;100128.81;5056232;28;45557;-63
2022/03/30 01:59:18;;;;;;;;;60.00;46.75;;;;;13.80;65.54;100125.06;5046855;28;45498;-64
2022/03/30 02:01:45;;;;;;;;;60.25;46.75;;;;;13.83;65.42;100132.75;5046926;28;45450;-64
2022/03/30 02:04:10;;;;;;;;;56.50;46.50;;;;;13.85;65.33;100122.88;5055129;28;45231;-64
2022/03/30 02:06:37;;;;;;;;;56.00;46.25;;;;;13.86;65.68;100133.34;5050839;28;45674;-64
2022/03/30 02:09:06;;;;;;;;;54.00;45.75;;;;;13.87;65.67;100127.06;5040846;28;45723;-64
2022/03/30 02:11:33;;;;;;;;;60.50;47.00;;;;;13.88;65.53;100122.63;5040503;28;45464;-64
2022/03/30 02:13:58;;;;;;;;;63.50;48.00;;;;;13.89;65.38;100114.53;5040309;28;45456;-64
2022/03/30 02:16:24;;;;;;;;;58.50;46.25;;;;;13.91;65.40;100111.78;5040347;28;45492;-64
2022/03/30 02:18:51;;;;;;;;;62.25;48.25;;;;;13.89;65.40;100106.59;5040696;28;45369;-64
2022/03/30 02:21:16;;;;;;;;;62.75;48.00;;;;;13.88;65.48;100104.91;5039088;28;45741;-64
2022/03/30 02:23:45;;;;;;;;;65.00;49.75;;;;;13.89;65.33;100105.75;5026612;28;45532;-64
2022/03/30 02:26:11;;;;;;;;;57.00;46.25;;;;;13.86;65.28;100104.22;5056273;28;45446;-64
2022/03/30 02:28:36;;;;;;;;;65.75;49.50;;;;;13.83;65.54;100103.66;5061836;28;45447;-64
2022/03/30 02:31:02;;;;;;;;;64.75;49.00;;;;;13.79;65.61;100110.16;5061546;28;45396;-64
2022/03/30 02:33:27;;;;;;;;;67.75;50.00;;;;;13.75;65.63;100101.63;5061909;28;45479;-64
2022/03/30 02:35:53;;;;;;;;;60.75;48.00;;;;;13.73;65.53;100095.59;5061835;28;45430;-64
2022/03/30 02:38:19;;;;;;;;;64.75;48.00;;;;;13.66;65.76;100091.78;5061859;28;45359;-64
2022/03/30 02:40:45;;;;;;;;;59.50;45.50;;;;;13.61;65.76;100089.53;5046541;28;45412;-64
2022/03/30 02:43:11;;;;;;;;;58.25;45.75;;;;;13.57;65.84;100088.09;5022174;28;45521;-64
2022/03/30 02:45:38;;;;;;;;;64.75;48.50;;;;;13.53;66.14;100086.66;5040302;28;45508;-64
2022/03/30 02:48:19;;;;;;;;;60.75;48.00;;;;;13.52;66.55;100089.44;5039854;28;45453;-64
2022/03/30 02:50:47;;;;;;;;;60.25;47.00;;;;;13.51;66.43;100087.75;5043438;28;45301;-64
2022/03/30 02:53:14;;;;;;;;;65.00;49.75;;;;;13.45;66.28;100083.81;5052309;28;45501;-64
2022/03/30 02:55:40;;;;;;;;;62.00;48.00;;;;;13.41;66.42;100082.38;5057677;28;45455;-64
2022/03/30 02:58:06;;;;;;;;;60.50;47.75;;;;;13.38;66.33;100085.28;5061408;28;45375;-64
2022/03/30 03:00:32;;;;;;;;;64.50;49.50;;;;;13.36;66.66;100088.06;5060848;28;45328;-64
2022/03/30 03:03:00;;;;;;;;;69.75;50.50;;;;;13.32;66.70;100083.13;5061539;28;45317;-64
2022/03/30 03:05:31;;;;;;;;;65.25;50.00;;;;;13.32;66.62;100080.47;5061798;28;45587;-64
2022/03/30 03:08:03;;;;;;;;;61.50;46.50;;;;;13.31;66.68;100079.63;5047259;28;45519;-66
2022/03/30 03:10:30;;;;;;;;;56.25;44.25;;;;;13.29;66.87;100078.09;5041369;28;45388;-64
2022/03/30 03:12:56;;;;;;;;;60.00;45.50;;;;;13.26;66.79;100071.22;5041096;28;45367;-64
2022/03/30 03:15:22;;;;;;;;;65.75;49.50;;;;;13.27;67.33;100072.06;5040831;28;45468;-64
2022/03/30 03:17:48;;;;;;;;;68.50;52.00;;;;;13.25;67.11;100074.84;5040880;28;45274;-64
2022/03/30 03:20:14;;;;;;;;;68.00;50.75;;;;;13.26;67.07;100070.38;5041379;28;45370;-64
2022/03/30 03:22:41;;;;;;;;;64.75;48.75;;;;;13.30;67.19;100074.47;5041106;28;45344;-64
2022/03/30 03:25:08;;;;;;;;;59.50;46.75;;;;;13.33;67.02;100071.56;5041022;28;45233;-64
2022/03/30 03:27:33;;;;;;;;;61.25;48.25;;;;;13.34;66.94;100075.88;5040813;28;45425;-64
2022/03/30 03:30:00;;;;;;;;;59.50;45.50;;;;;13.35;67.01;100065.22;5041048;28;45435;-64
2022/03/30 03:32:25;;;;;;;;;63.50;47.75;;;;;13.37;66.92;100065.09;5040870;28;45399;-64
2022/03/30 03:34:51;;;;;;;;;64.00;50.50;;;;;13.40;66.89;100070.09;5040903;28;45384;-64
2022/03/30 03:37:16;;;;;;;;;66.00;48.75;;;;;13.40;66.95;100063.00;5022613;28;46320;-63
2022/03/30 03:39:43;;;;;;;;;53.25;43.00;;;;;13.41;66.79;100064.69;5041118;28;45349;-62
2022/03/30 03:42:08;;;;;;;;;61.75;48.25;;;;;13.41;66.97;100059.41;5039290;28;45607;-62
2022/03/30 03:44:34;;;;;;;;;68.75;49.75;;;;;13.41;66.75;100063.84;5039083;28;45501;-62
2022/03/30 03:47:00;;;;;;;;;64.25;46.50;;;;;13.38;66.78;100056.19;5038839;28;45471;-62
2022/03/30 03:49:26;;;;;;;;;66.00;50.00;;;;;13.37;67.06;100051.84;5039107;28;45554;-62
2022/03/30 03:51:51;;;;;;;;;65.25;48.25;;;;;13.37;67.23;100057.97;5040992;28;45443;-61
2022/03/30 03:54:17;;;;;;;;;59.75;48.00;;;;;13.39;67.21;100057.84;5040547;28;45418;-61
2022/03/30 03:56:43;;;;;;;;;64.00;48.00;;;;;13.40;67.03;100052.44;5056102;28;46173;-61
2022/03/30 03:59:10;;;;;;;;;62.50;46.75;;;;;13.43;67.10;100051.34;5060280;28;45435;-61
2022/03/30 04:01:35;;;;;;;;;65.25;52.00;;;;;13.45;67.14;100049.41;5060491;28;45439;-61
2022/03/30 04:04:01;;;;;;;;;64.00;51.25;;;;;13.45;67.30;100041.47;5060116;28;45410;-61
2022/03/30 04:06:26;;;;;;;;;66.00;52.75;;;;;13.45;67.13;100044.13;5058727;28;45391;-61
2022/03/30 04:08:52;;;;;;;;;64.75;48.50;;;;;13.44;67.17;100041.63;5040618;28;45294;-61
2022/03/30 04:11:17;;;;;;;;;66.50;51.25;;;;;13.44;67.08;100038.97;5040230;28;45477;-61
2022/03/30 04:13:43;;;;;;;;;70.50;51.25;;;;;13.44;66.93;100039.81;5040175;28;45523;-61
2022/03/30 04:16:08;;;;;;;;;67.25;50.75;;;;;13.46;66.78;100050.25;5040098;28;45865;-61
2022/03/30 04:18:34;;;;;;;;;62.00;50.75;;;;;13.47;67.09;100042.19;5039902;28;45352;-61
2022/03/30 04:20:59;;;;;;;;;69.00;53.67;;;;;13.48;67.08;100035.09;5040325;28;45255;-61
2022/03/30 04:23:25;;;;;;;;;66.25;51.25;;;;;13.49;66.73;100042.06;5040012;28;45381;-61
2022/03/30 04:25:50;;;;;;;;;68.50;52.25;;;;;13.50;67.12;100030.50;5039758;28;45499;-61
2022/03/30 04:28:17;;;;;;;;;65.75;50.25;;;;;13.51;67.00;100032.19;5039246;28;45422;-61
2022/03/30 04:30:43;;;;;;;;;65.25;52.25;;;;;13.49;67.06;100031.47;5040330;28;45544;-61
2022/03/30 04:33:09;;;;;;;;;64.00;50.25;;;;;13.48;67.06;100027.16;5040002;28;45408;-61
2022/03/30 04:35:35;;;;;;;;;74.67;51.67;;;;;13.50;66.98;100027.84;5039912;28;45618;-61
2022/03/30 04:38:01;;;;;;;;;65.25;48.75;;;;;13.53;67.09;100027.63;5040032;28;45272;-61
2022/03/30 04:40:28;;;;;;;;;62.67;48.67;;;;;13.52;66.94;100029.44;5038967;28;45442;-61
2022/03/30 04:42:54;;;;;;;;;63.75;49.50;;;;;13.54;67.08;100026.66;5038092;28;45529;-62
2022/03/30 04:45:20;;;;;;;;;62.75;50.75;;;;;13.52;67.15;100026.78;5040230;28;45536;-61
2022/03/30 04:47:47;;;;;;;;;64.50;49.00;;;;;13.51;67.23;100022.47;5041801;28;45662;-60
2022/03/30 04:50:13;;;;;;;;;70.00;52.50;;;;;13.52;67.10;100020.66;5042691;28;45448;-61
2022/03/30 04:52:39;;;;;;;;;68.33;51.33;;;;;13.51;67.25;100009.22;5043461;28;45504;-61
2022/03/30 04:55:07;;;;;;;;;67.00;50.67;;;;;13.51;67.39;100016.31;5045160;28;46159;-61
2022/03/30 04:57:32;;;;;;;;;68.50;51.75;;;;;13.49;67.40;100012.94;5063527;28;45445;-61
2022/03/30 04:59:58;;;;;;;;;69.67;52.00;;;;;13.49;67.37;100007.66;5062703;28;45310;-61
2022/03/30 05:02:25;;;;;;;;;68.00;51.00;;;;;13.45;67.49;100011.53;5063431;28;45474;-61
2022/03/30 05:04:50;;;;;;;;;66.00;50.00;;;;;13.44;67.51;100008.06;5063521;28;46309;-61
2022/03/30 05:07:16;;;;;;;;;71.33;54.67;;;;;13.44;67.54;100005.41;5054920;28;45230;-61
2022/03/30 05:09:41;;;;;;;;;69.00;53.50;;;;;13.43;67.52;100002.88;5043596;28;45571;-61
2022/03/30 05:12:07;;;;;;;;;69.75;54.00;;;;;13.42;67.89;100007.31;5043496;28;45456;-61
2022/03/30 05:14:33;;;;;;;;;71.00;53.33;;;;;13.41;67.60;100010.94;5042467;28;46182;-61
2022/03/30 05:16:59;;;;;;;;;63.50;50.00;;;;;13.44;67.43;100005.41;5043306;28;45532;-61
2022/03/30 05:19:25;;;;;;;;;70.00;51.67;;;;;13.45;67.54;100006.25;5042859;28;45366;-61
2022/03/30 05:21:50;;;;;;;;;63.33;50.00;;;;;13.43;67.27;100009.03;5043207;28;45434;-61
2022/03/30 05:24:16;;;;;;;;;68.33;51.00;;;;;13.43;67.44;100003.75;5042642;28;45457;-61
2022/03/30 05:26:41;;;;;;;;;66.33;52.00;;;;;13.43;67.37;100006.38;5043161;28;45373;-61
2022/03/30 05:29:07;;;;;;;;;70.00;53.00;;;;;13.39;67.84;100002.28;5042748;28;45374;-61
2022/03/30 05:31:33;;;;;;;;;75.33;56.33;;;;;13.36;67.60;100003.41;5042787;28;45262;-61
2022/03/30 05:33:58;;;;;;;;;69.00;52.67;;;;;13.37;67.55;100009.53;5042429;28;45463;-61
2022/03/30 05:36:24;;;;;;;;;69.33;56.00;;;;;13.35;67.47;100007.00;5042906;28;45253;-61
2022/03/30 05:38:50;;;;;;;;;64.25;51.00;;;;;13.38;67.67;100017.34;5043472;28;45224;-61
2022/03/30 05:41:17;;;;;;;;;70.67;53.67;;;;;13.37;67.49;100010.38;5044694;28;45524;-62
2022/03/30 05:43:42;;;;;;;;;73.67;54.33;;;;;13.38;67.42;100016.50;5054847;28;46830;-62
2022/03/30 05:46:09;;;;;;;;;75.67;53.67;;;;;13.36;67.59;100007.84;5058914;28;45491;-62
2022/03/30 05:48:34;;;;;;;;;69.00;54.67;;;;;13.36;67.81;100008.69;5060708;28;45363;-62
2022/03/30 05:51:00;;;;;;;;;70.67;54.33;;;;;13.38;67.76;100008.56;5061811;28;45491;-62
2022/03/30 05:53:25;;;;;;;;;70.00;53.67;;;;;13.37;67.73;100009.53;5062362;28;45449;-62
2022/03/30 05:55:51;;;;;;;;;72.00;56.33;;;;;13.37;67.57;100017.47;5052122;28;45390;-62
2022/03/30 05:58:17;;;;;;;;;71.00;51.25;;;;;13.36;67.57;100015.78;5041628;28;45733;-62
2022/03/30 06:00:43;;;;;;;;;74.67;57.00;;;;;13.37;67.54;100018.31;5051709;28;45601;-62
2022/03/30 06:03:12;;;;;;;;;77.33;54.67;;;;;13.37;67.48;100026.25;5050806;28;45646;-63
2022/03/30 06:05:38;;;;;;;;;70.33;55.00;;;;;13.37;67.54;100020.09;5051257;28;45419;-62
2022/03/30 06:08:06;;;;;;;;;74.33;56.33;;;;;13.40;67.73;100030.44;5046892;28;45470;-64
2022/03/30 06:10:32;;;;;;;;;73.33;54.00;;;;;13.41;67.61;100026.81;5048077;28;45864;-64
2022/03/30 06:12:57;;;;;;;;;69.33;51.67;;;;;13.37;67.71;100031.53;5057429;28;45301;-63
2022/03/30 06:15:24;;;;;;;;;68.00;52.00;;;;;13.37;68.04;100035.97;5048341;28;45609;-63
2022/03/30 06:17:51;;;;;;;;;69.67;52.67;;;;;13.36;67.84;100036.94;5047751;28;45232;-62
2022/03/30 06:20:17;;;;;;;;;74.00;53.33;;;;;13.38;67.90;100025.28;5046621;28;45513;-61
2022/03/30 06:22:44;;;;;;;;;71.00;53.67;;;;;13.39;67.99;100029.59;5046385;28;45475;-61
2022/03/30 06:25:11;;;;;;;;;70.67;53.33;;;;;13.39;67.90;100028.75;5042068;28;45613;-61
2022/03/30 06:27:37;;;;;;;;;71.67;56.00;;;;;13.41;67.86;100034.75;5041889;28;45352;-62
2022/03/30 06:30:05;;;;;;;;;79.33;56.33;;;;;13.42;68.02;100033.78;5042183;28;45254;-62
2022/03/30 06:32:31;;;;;;;;;70.33;55.00;;;;;13.42;68.05;100028.50;5042302;28;45394;-61
2022/03/30 06:34:57;;;;;;;;;68.00;50.67;;;;;13.41;68.09;100035.59;5045977;28;45266;-59
2022/03/30 06:37:22;;;;;;;;;73.67;54.00;;;;;13.43;67.81;100031.97;5052305;28;45454;-62
2022/03/30 06:39:49;;;;;;;;;71.00;54.67;;;;;13.40;68.33;100035.72;5042009;28;45388;-61
2022/03/30 06:42:16;;;;;;;;;64.67;52.33;;;;;13.39;67.79;100041.97;5054828;28;45710;-61
2022/03/30 06:44:42;;;;;;;;;70.33;52.00;;;;;13.38;67.74;100032.38;5042014;28;45238;-64
2022/03/30 06:47:09;;;;;;;;;71.25;52.50;;;;;13.34;68.04;100033.56;5055615;28;45449;-64
2022/03/30 06:49:37;;;;;;;;;77.00;58.67;;;;;13.30;68.03;100030.34;5026945;28;45502;-63
2022/03/30 06:52:06;;;;;;;;;73.67;54.00;;;;;13.31;67.78;100034.66;5053198;28;45792;-63
2022/03/30 06:54:34;;;;;;;;;75.00;55.33;;;;;13.32;67.87;100040.78;5046744;28;45225;-63
2022/03/30 06:57:00;;;;;;;;;69.33;51.67;;;;;13.30;68.43;100038.28;5057521;28;45233;-63
2022/03/30 06:59:27;;;;;;;;;67.33;53.00;;;;;13.29;68.06;100044.53;5061684;28;45436;-63
2022/03/30 07:01:54;;;;;;;;;66.00;52.00;;;;;13.24;68.44;100049.34;5061461;28;45719;-63
2022/03/30 07:04:20;;;;;;;;;59.50;50.00;;;;;13.23;68.55;100047.69;5060589;28;45403;-63
2022/03/30 07:12:14;;;;;;;;;72.00;55.00;;;;;13.12;69.04;100045.03;5041376;28;45766;-63
2022/03/30 07:14:39;;;;;;;;;69.67;53.00;;;;;13.12;69.07;100051.16;5041270;28;45372;-63
2022/03/30 07:17:05;;;;;;;;;68.33;53.67;;;;;13.06;69.20;100043.72;5041613;28;45380;-63
2022/03/30 07:19:30;;;;;;;;;66.67;52.00;;;;;13.02;69.24;100044.91;5023572;28;45410;-63
2022/03/30 07:21:56;;;;;;;;;67.33;52.67;;;;;13.02;69.52;100044.91;5041312;28;46175;-63
2022/03/30 07:24:22;;;;;;;;;69.67;54.00;;;;;13.01;69.29;100045.88;5043725;28;45304;-63
2022/03/30 07:26:47;;;;;;;;;68.50;52.25;;;;;13.00;69.41;100038.94;5057528;28;45550;-60
2022/03/30 07:29:13;;;;;;;;;69.33;52.33;;;;;13.05;69.69;100041.22;5048750;28;45278;-63
2022/03/30 07:31:38;;;;;;;;;64.75;51.25;;;;;13.05;69.31;100042.06;5042724;28;45422;-60
2022/03/30 07:34:04;;;;;;;;;62.75;44.50;;;;;13.07;69.48;100034.81;5060992;28;45292;-61
2022/03/30 07:36:30;;;;;;;;;61.50;49.50;;;;;13.09;69.51;100032.91;5061477;28;45219;-60
2022/03/30 07:38:55;;;;;;;;;68.67;50.67;;;;;13.12;69.49;100043.25;5060803;28;45350;-61
2022/03/30 07:41:21;;;;;;;;;63.50;47.00;;;;;13.11;69.48;100033.63;5042177;28;45300;-63
2022/03/30 07:43:47;;;;;;;;;69.50;51.00;;;;;13.14;69.16;100033.38;5057299;28;45412;-60
2022/03/30 07:46:13;;;;;;;;;63.25;49.75;;;;;13.17;68.95;100040.22;5059759;28;45376;-68
2022/03/30 07:48:40;;;;;;;;;63.50;49.25;;;;;13.17;68.99;100037.56;5060612;28;45467;-66
2022/03/30 07:51:06;;;;;;;;;64.75;51.25;;;;;13.18;69.18;100039.22;5060815;28;46137;-63
2022/03/30 07:53:32;;;;;;;;;69.75;53.25;;;;;13.21;68.93;100041.69;5060235;28;45430;-65
2022/03/30 07:55:58;;;;;;;;;70.50;54.00;;;;;13.19;69.14;100043.56;5052262;28;45435;-60
2022/03/30 07:58:25;;;;;;;;;67.67;51.00;;;;;13.17;69.30;100036.72;5042927;28;45701;-64
2022/03/30 08:00:51;;;;;;;;;71.00;51.75;;;;;13.12;69.04;100043.25;5044315;28;45406;-61
2022/03/30 08:03:17;;;;;;;;;75.50;54.00;;;;;13.11;68.98;100035.41;5044382;28;45254;-62
2022/03/30 08:05:42;;;;;;;;;67.50;50.50;;;;;13.09;69.06;100032.91;5040579;28;45326;-62
2022/03/30 08:08:08;;;;;;;;;70.50;53.50;;;;;13.10;68.93;100031.94;5050152;28;45420;-62
2022/03/30 08:10:35;;;;;;;;;66.67;51.33;;;;;13.05;68.88;100038.56;5039005;28;45384;-62
2022/03/30 08:13:02;;;;;;;;;68.67;52.67;;;;;13.03;68.80;100043.13;5039404;28;45484;-61
2022/03/30 08:15:28;;;;;;;;;69.67;53.67;;;;;13.02;68.90;100042.28;5025774;28;45469;-62
2022/03/30 08:17:54;;;;;;;;;70.33;56.00;;;;;13.04;68.91;100042.19;5038549;28;45469;-62
2022/03/30 08:23:09;;;;;;;;;68.25;52.00;;;;;13.06;68.59;100042.88;5029600;28;45524;-61
2022/03/30 08:25:35;;;;;;;;;71.00;53.50;;;;;13.06;68.78;100043.72;5040587;28;45313;-61
2022/03/30 08:28:02;;;;;;;;;76.67;56.67;;;;;13.04;68.75;100035.09;5040040;28;45495;-62
2022/03/30 08:30:28;;;;;;;;;76.00;54.33;;;;;13.07;68.56;100036.63;5039200;28;45577;-62
2022/03/30 08:32:54;;;;;;;;;72.33;55.00;;;;;13.08;68.58;100039.16;5039468;28;45256;-62
2022/03/30 08:35:21;;;;;;;;;72.33;54.33;;;;;13.10;68.59;100037.22;5040377;28;45328;-62
2022/03/30 08:37:47;;;;;;;;;79.00;56.33;;;;;13.14;68.64;100037.81;5040512;28;45247;-62
2022/03/30 08:40:12;;;;;;;;;72.00;56.33;;;;;13.19;68.92;100043.56;5040084;28;45427;-62
2022/03/30 08:42:40;;;;;;;;;78.33;55.33;;;;;13.21;68.50;100038.19;5039036;28;45340;-62
2022/03/30 08:45:07;;;;;;;;;77.33;56.67;;;;;13.20;68.75;100034.72;5039843;28;45374;-62
2022/03/30 08:47:34;;;;;;;;;73.00;56.00;;;;;13.23;68.85;100033.63;5039749;28;45229;-62
2022/03/30 08:49:59;;;;;;;;;80.67;57.67;;;;;13.20;69.01;100034.72;5039262;28;45403;-64
2022/03/30 08:52:25;;;;;;;;;73.33;55.33;;;;;13.19;68.88;100034.78;5045405;28;45197;-60
2022/03/30 08:54:51;;;;;;;;;75.00;54.33;;;;;13.13;68.93;100028.22;5039833;28;45261;-60
2022/03/30 08:57:17;;;;;;;;;82.00;58.00;;;;;13.09;68.67;100029.41;5040378;28;45260;-62
2022/03/30 09:00:12;;;;;;;;;71.67;57.00;;;;;13.08;68.71;100027.72;5039550;28;46341;-65
2022/03/30 09:02:44;;;;;;;;;77.33;59.00;;;;;13.06;68.83;100029.66;5042265;28;45370;-61
2022/03/30 09:05:22;;;;;;;;;79.33;58.67;;;;;13.07;69.30;100034.00;5039850;28;45255;-60
2022/03/30 09:07:51;;;;;;;;;74.67;56.00;;;;;13.09;69.44;100026.75;5040123;28;45594;-59
2022/03/30 09:10:28;;;;;;;;;80.00;57.67;;;;;13.12;69.40;100037.13;5039061;28;45560;-60
2022/03/30 09:12:56;;;;;;;;;79.00;58.00;;;;;13.16;69.46;100032.41;5037437;28;45429;-60
2022/03/30 09:15:22;;;;;;;;;74.67;54.33;;;;;13.18;69.06;100027.81;5038887;28;45266;-60
2022/03/30 09:17:48;;;;;;;;;76.67;56.67;;;;;13.20;69.31;100029.44;5039399;28;45486;-61
2022/03/30 09:20:19;;;;;;;;;78.67;55.67;;;;;13.22;69.52;100027.50;5039452;28;45471;-60
2022/03/30 09:22:49;;;;;;;;;74.00;56.67;;;;;13.28;69.30;100029.66;5039530;28;45215;-61
2022/03/30 09:25:16;;;;;;;;;73.75;56.00;;;;;13.33;69.25;100031.91;5039076;28;45395;-61
2022/03/30 09:27:44;;;;;;;;;79.50;57.75;;;;;13.38;69.07;100038.50;5039532;28;45589;-60
2022/03/30 09:30:15;;;;;;;;;79.33;61.00;;;;;13.43;68.78;100031.97;5040036;28;46068;-61
2022/03/30 09:32:42;;;;;;;;;74.33;56.33;;;;;13.47;68.67;100030.75;5042607;28;45376;-60
2022/03/30 09:35:28;;;;;;;;;67.00;54.00;;;;;13.50;68.58;100025.22;5043076;28;45311;-61
2022/03/30 09:38:04;;;;;;;;;67.00;52.00;;;;;13.51;68.41;100040.13;5043160;28;45228;-61
2022/03/30 09:40:53;;;;;;;;;76.00;57.33;;;;;13.56;68.76;100030.00;5043132;28;45302;-61
2022/03/30 09:43:22;;;;;;;;;83.00;59.33;;;;;13.63;68.50;100037.31;5041425;28;45442;-60
2022/03/30 09:45:50;;;;;;;;;81.33;60.33;;;;;13.72;68.39;100033.03;5043028;28;45246;-59
2022/03/30 09:48:20;;;;;;;;;78.00;57.00;;;;;13.81;68.46;100034.91;5043015;28;45587;-61
2022/03/30 09:50:49;;;;;;;;;77.67;55.67;;;;;13.89;67.80;100029.81;5042915;28;45428;-60
2022/03/30 09:53:17;;;;;;;;;71.67;56.00;;;;;13.97;67.56;100034.47;5042246;28;45338;-60
2022/03/30 09:55:55;;;;;;;;;74.33;56.33;;;;;14.06;67.40;100035.50;5042739;28;45368;-60
2022/03/30 09:58:21;;;;;;;;;73.00;55.00;;;;;14.13;67.48;100023.41;5042830;28;45419;-60
2022/03/30 10:01:08;;;;;;;;;76.00;58.00;;;;;14.27;67.19;100027.53;5041661;28;45406;-60
2022/03/30 10:03:37;;;;;;;;;76.67;56.33;;;;;14.43;67.47;100027.88;5041331;28;45441;-60
2022/03/30 10:06:04;;;;;;;;;75.00;55.33;;;;;14.56;66.96;100025.06;5041993;28;45444;-60
2022/03/30 10:08:31;;;;;;;;;72.67;56.00;;;;;14.64;66.54;100026.06;5042375;28;45459;-61
2022/03/30 10:10:57;;;;;;;;;66.75;49.50;;;;;14.71;66.33;100027.19;5042521;28;45324;-60
2022/03/30 10:13:24;;;;;;;;;72.67;54.33;;;;;14.71;65.82;100023.72;5040950;28;45331;-61
2022/03/30 10:15:52;;;;;;;;;69.50;51.75;;;;;14.68;65.71;100021.31;5041841;28;45289;-60
2022/03/30 10:18:19;;;;;;;;;73.33;51.67;;;;;14.67;65.78;100017.00;5042291;28;45456;-60
2022/03/30 10:20:49;;;;;;;;;70.25;54.25;;;;;14.75;66.00;100012.69;5042107;28;45273;-62
2022/03/30 10:23:27;;;;;;;;;70.00;47.00;;;;;14.82;64.67;100015.63;5041785;28;45478;-68
2022/03/30 10:26:06;;;;;;;;;72.33;55.00;;;;;14.78;64.06;100008.94;5041868;28;45391;-66
2022/03/30 10:28:40;;;;;;;;;73.75;53.75;;;;;14.76;64.73;100014.34;5042499;28;45435;-64
2022/03/30 10:31:07;;;;;;;;;65.00;50.00;;;;;14.88;64.74;100012.44;5041846;28;45396;-62
2022/03/30 10:33:37;;;;;;;;;74.50;54.25;;;;;14.91;65.02;100006.88;5041033;28;45613;-65
2022/03/30 10:36:22;;;;;;;;;67.50;52.00;;;;;14.99;65.45;100007.03;5041250;28;45385;-61
2022/03/30 10:39:11;;;;;;;;;75.50;54.25;;;;;15.10;64.30;100003.44;5024064;28;45329;-63
2022/03/30 10:42:04;;;;;;;;;68.50;53.00;;;;;15.26;64.16;100003.72;5040726;28;45372;-61
2022/03/30 10:44:40;;;;;;;;;68.25;51.75;;;;;15.39;63.91;100002.59;5041526;28;45388;-65
2022/03/30 10:47:30;;;;;;;;;70.25;52.00;;;;;15.51;63.55;99998.81;5042272;28;45378;-62
2022/03/30 10:49:58;;;;;;;;;68.50;50.75;;;;;15.60;63.37;99996.16;5041892;28;45238;-60
2022/03/30 10:52:25;;;;;;;;;68.75;52.00;;;;;15.67;62.35;99991.16;5041622;28;45432;-60
2022/03/30 10:54:55;;;;;;;;;76.75;53.50;;;;;15.76;62.39;99989.47;5040806;28;45498;-61
2022/03/30 10:57:50;;;;;;;;;69.00;53.00;;;;;15.84;61.93;99978.97;5041524;28;45332;-62
2022/03/30 11:00:16;;;;;;;;;69.75;53.00;;;;;15.88;61.29;99977.72;5039871;28;45541;-61
2022/03/30 11:02:41;;;;;;;;;68.00;52.00;;;;;15.95;61.97;99980.59;5039909;28;46405;-61
2022/03/30 11:05:12;;;;;;;;;72.50;51.00;;;;;16.04;61.44;99977.94;5040170;28;45320;-61
2022/03/30 11:07:38;;;;;;;;;68.50;50.25;;;;;16.19;60.74;99973.84;5040165;28;45325;-61
2022/03/30 11:10:36;;;;;;;;;70.25;52.50;;;;;16.41;60.53;99977.09;5039884;28;45589;-61
2022/03/30 11:13:06;;;;;;;;;64.25;52.00;;;;;16.70;60.12;99974.31;5035442;28;46007;-61
2022/03/30 11:15:57;;;;;;;;;65.00;50.25;;;;;16.86;58.89;99963.03;5040380;28;45480;-61
2022/03/30 11:18:23;;;;;;;;;67.25;54.25;;;;;17.06;58.79;99972.53;5040786;28;45432;-61
2022/03/30 11:21:20;;;;;;;;;67.75;51.00;;;;;17.26;58.69;99971.41;5041028;28;45537;-61
2022/03/30 11:24:08;;;;;;;;;69.50;50.00;;;;;17.30;57.26;99967.47;5050500;28;45415;-61